createdAt,value
2018-06-16T00:01:31.767Z,90.00
2018-06-16T00:04:00.669Z,90.00
2018-06-16T00:06:29.544Z,90.30
2018-06-16T00:08:58.527Z,90.80
2018-06-16T00:11:27.379Z,91.00
2018-06-16T00:13:56.253Z,91.60
2018-06-16T00:16:25.165Z,91.20
2018-06-16T00:18:53.877Z,91.10
2018-06-16T00:21:22.773Z,91.10
2018-06-16T00:23:51.532Z,91.30
2018-06-16T00:26:20.439Z,91.40
2018-06-16T00:28:49.325Z,91.40
2018-06-16T00:31:18.376Z,91.40
2018-06-16T00:33:47.346Z,91.80
2018-06-16T00:36:16.278Z,91.90
2018-06-16T00:38:45.089Z,92.10
2018-06-16T00:41:13.947Z,92.50
2018-06-16T00:43:43.170Z,92.40
2018-06-16T00:46:12.019Z,92.60
2018-06-16T00:48:45.351Z,92.80
2018-06-16T00:51:14.337Z,93.10
2018-06-16T00:53:43.088Z,93.20
2018-06-16T00:56:12.548Z,93.10
2018-06-16T00:58:42.449Z,93.30
2018-06-16T01:01:11.284Z,93.30
2018-06-16T01:03:40.251Z,93.30
2018-06-16T01:06:09.223Z,93.10
2018-06-16T01:08:38.310Z,93.60
2018-06-16T01:11:07.164Z,93.60
2018-06-16T01:13:35.909Z,93.60
2018-06-16T01:16:04.785Z,93.70
2018-06-16T01:18:33.575Z,93.90
2018-06-16T01:21:02.357Z,94.10
2018-06-16T01:23:31.187Z,94.30
2018-06-16T01:25:59.986Z,94.50
2018-06-16T01:28:28.743Z,94.50
2018-06-16T01:30:57.685Z,94.60
2018-06-16T01:33:26.531Z,94.50
2018-06-16T01:35:55.477Z,94.50
2018-06-16T01:38:24.361Z,94.60
2018-06-16T01:40:53.157Z,94.80
2018-06-16T01:43:22.197Z,94.70
2018-06-16T01:45:51.333Z,94.80
2018-06-16T01:48:20.469Z,94.90
2018-06-16T01:50:49.375Z,95.10
2018-06-16T01:53:18.199Z,95.00
2018-06-16T01:58:15.717Z,95.10
2018-06-16T02:00:44.736Z,95.10
2018-06-16T02:03:13.821Z,95.00
2018-06-16T02:05:42.925Z,95.00
2018-06-16T02:08:11.836Z,95.10
2018-06-16T02:10:40.720Z,95.20
2018-06-16T02:13:09.515Z,95.20
2018-06-16T02:15:38.491Z,95.20
2018-06-16T02:18:07.395Z,95.00
2018-06-16T02:20:36.061Z,95.30
2018-06-16T02:23:04.920Z,95.50
2018-06-16T02:25:33.804Z,95.60
2018-06-16T02:28:02.717Z,95.70
2018-06-16T02:30:31.452Z,95.60
2018-06-16T02:35:29.733Z,95.70
2018-06-16T02:37:58.583Z,95.80
2018-06-16T02:40:27.464Z,95.80
2018-06-16T02:42:56.943Z,96.00
2018-06-16T02:45:25.977Z,96.00
2018-06-16T02:47:54.985Z,96.00
2018-06-16T02:50:27.346Z,96.20
2018-06-16T02:52:56.164Z,96.70
2018-06-16T02:55:25.183Z,96.30
2018-06-16T02:57:54.028Z,96.30
2018-06-16T03:00:22.847Z,96.30
2018-06-16T03:02:51.672Z,96.40
2018-06-16T03:05:20.543Z,96.30
2018-06-16T03:07:49.401Z,96.40
2018-06-16T03:10:18.277Z,96.40
2018-06-16T03:12:47.208Z,96.40
2018-06-16T03:15:16.099Z,96.40
2018-06-16T03:17:45.044Z,96.30
2018-06-16T03:20:14.268Z,96.10
2018-06-16T03:22:43.070Z,95.90
2018-06-16T03:25:11.971Z,95.80
2018-06-16T03:27:40.920Z,95.70
2018-06-16T03:30:09.762Z,95.40
2018-06-16T03:32:38.590Z,95.50
2018-06-16T03:35:07.423Z,95.40
2018-06-16T03:37:36.251Z,95.30
2018-06-16T03:40:05.399Z,95.20
2018-06-16T03:42:35.406Z,95.00
2018-06-16T03:45:04.438Z,94.90
2018-06-16T03:47:33.287Z,94.80
2018-06-16T03:50:02.022Z,94.90
2018-06-16T03:52:31.054Z,94.90
2018-06-16T03:55:00.207Z,94.50
2018-06-16T03:57:29.016Z,94.20
2018-06-16T03:59:57.809Z,94.00
2018-06-16T04:02:26.771Z,93.70
2018-06-16T04:07:24.042Z,93.40
2018-06-16T04:09:52.965Z,93.30
2018-06-16T04:12:22.345Z,93.00
2018-06-16T04:14:51.139Z,92.90
2018-06-16T04:17:21.023Z,92.60
2018-06-16T04:19:51.211Z,92.50
2018-06-16T04:22:20.679Z,92.00
2018-06-16T04:24:49.450Z,92.40
2018-06-16T04:27:18.385Z,92.20
2018-06-16T04:29:47.371Z,92.00
2018-06-16T04:32:16.104Z,92.10
2018-06-16T04:34:44.909Z,92.20
2018-06-16T04:37:13.896Z,91.70
2018-06-16T04:39:43.183Z,91.40
2018-06-16T04:42:12.107Z,91.30
2018-06-16T04:47:09.662Z,91.80
2018-06-16T04:49:38.446Z,90.30
2018-06-16T04:52:07.508Z,88.20
2018-06-16T04:54:36.345Z,82.90
2018-06-16T04:57:05.357Z,81.30
2018-06-16T04:59:34.250Z,75.00
2018-06-16T05:02:03.260Z,71.80
2018-06-16T05:04:32.144Z,71.50
2018-06-16T05:07:00.999Z,71.50
2018-06-16T05:09:29.800Z,69.50
2018-06-16T05:11:58.592Z,68.70
2018-06-16T05:14:27.486Z,66.60
2018-06-16T05:16:56.336Z,63.90
2018-06-16T05:19:25.209Z,60.40
2018-06-16T05:21:54.077Z,58.80
2018-06-16T05:24:22.910Z,56.80
2018-06-16T05:26:51.786Z,55.30
2018-06-16T05:29:20.516Z,53.70
2018-06-16T05:31:49.339Z,51.30
2018-06-16T05:34:18.235Z,51.00
2018-06-16T05:36:47.608Z,46.90
2018-06-16T05:39:16.341Z,47.60
2018-06-16T05:41:45.063Z,45.80
2018-06-16T05:44:13.943Z,44.40
2018-06-16T05:46:42.609Z,44.10
2018-06-16T05:49:11.347Z,42.00
2018-06-16T05:51:40.130Z,42.00
2018-06-16T05:54:09.022Z,41.80
2018-06-16T05:56:37.740Z,41.10
2018-06-16T05:59:06.625Z,40.60
2018-06-16T06:01:35.577Z,39.50
2018-06-16T06:04:04.612Z,38.80
2018-06-16T06:06:33.428Z,38.00
2018-06-16T06:09:02.527Z,38.30
2018-06-16T06:11:31.266Z,36.30
2018-06-16T06:13:59.889Z,36.60
2018-06-16T06:16:28.642Z,35.30
2018-06-16T06:18:57.420Z,35.50
2018-06-16T06:21:26.684Z,35.90
2018-06-16T06:23:56.586Z,34.70
2018-06-16T06:26:25.280Z,35.10
2018-06-16T06:28:54.857Z,36.40
2018-06-16T06:31:23.766Z,36.40
2018-06-16T06:33:52.502Z,35.40
2018-06-16T06:36:22.093Z,33.80
2018-06-16T06:38:51.208Z,34.50
2018-06-16T06:41:20.628Z,33.60
2018-06-16T06:43:49.754Z,31.20
2018-06-16T06:46:18.592Z,31.30
2018-06-16T06:48:47.446Z,30.60
2018-06-16T06:51:16.397Z,29.60
2018-06-16T06:53:45.145Z,31.60
2018-06-16T06:56:13.830Z,29.60
2018-06-16T06:58:42.756Z,30.10
2018-06-16T07:01:11.497Z,30.50
2018-06-16T07:03:40.744Z,32.30
2018-06-16T07:06:09.496Z,33.60
2018-06-16T07:08:38.348Z,34.20
2018-06-16T07:11:07.219Z,35.90
2018-06-16T07:13:36.212Z,37.70
2018-06-16T07:16:05.423Z,37.40
2018-06-16T07:18:34.396Z,39.10
2018-06-16T07:21:03.137Z,39.80
2018-06-16T07:23:32.168Z,41.40
2018-06-16T07:26:01.131Z,42.60
2018-06-16T07:28:29.957Z,42.10
2018-06-16T07:30:59.736Z,42.90
2018-06-16T07:33:28.629Z,44.60
2018-06-16T07:35:57.430Z,44.30
2018-06-16T07:38:26.697Z,45.80
2018-06-16T07:40:55.721Z,45.50
2018-06-16T07:43:24.747Z,44.70
2018-06-16T07:45:53.610Z,47.00
2018-06-16T07:50:50.858Z,46.50
2018-06-16T07:53:19.783Z,46.30
2018-06-16T07:55:48.589Z,46.60
2018-06-16T07:58:17.477Z,46.20
2018-06-16T08:00:46.289Z,46.50
2018-06-16T08:03:15.073Z,47.20
2018-06-16T08:05:44.042Z,46.60
2018-06-16T08:08:12.948Z,45.70
2018-06-16T08:10:41.741Z,46.80
2018-06-16T08:13:11.646Z,48.30
2018-06-16T08:15:40.528Z,45.80
2018-06-16T08:18:09.522Z,46.40
2018-06-16T08:20:38.529Z,46.00
2018-06-16T08:23:07.475Z,45.30
2018-06-16T08:25:36.370Z,46.20
2018-06-16T08:28:05.315Z,45.60
2018-06-16T08:30:34.142Z,46.90
2018-06-16T08:33:03.051Z,47.20
2018-06-16T08:35:31.891Z,46.00
2018-06-16T08:38:00.721Z,47.00
2018-06-16T08:40:29.531Z,46.30
2018-06-16T08:42:58.349Z,47.50
2018-06-16T08:45:27.425Z,44.50
2018-06-16T08:48:02.961Z,46.50
2018-06-16T08:50:32.145Z,45.70
2018-06-16T08:53:01.283Z,45.20
2018-06-16T08:55:30.338Z,46.10
2018-06-16T08:57:59.310Z,46.70
2018-06-16T09:00:28.192Z,47.90
2018-06-16T09:02:58.141Z,49.50
2018-06-16T09:08:00.724Z,42.70
2018-06-16T09:10:29.475Z,41.40
2018-06-16T09:12:58.463Z,41.80
2018-06-16T09:15:33.431Z,42.50
2018-06-16T09:18:02.169Z,43.60
2018-06-16T09:20:31.004Z,43.60
2018-06-16T09:22:59.821Z,42.10
2018-06-16T09:25:28.594Z,41.60
2018-06-16T09:27:57.517Z,43.10
2018-06-16T09:30:26.349Z,40.60
2018-06-16T09:32:55.219Z,42.70
2018-06-16T09:35:46.578Z,41.20
2018-06-16T09:38:15.514Z,41.50
2018-06-16T09:40:44.324Z,40.90
2018-06-16T09:43:13.212Z,41.40
2018-06-16T09:45:41.981Z,42.70
2018-06-16T09:48:10.974Z,41.60
2018-06-16T09:50:39.707Z,41.40
2018-06-16T09:53:08.985Z,40.60
2018-06-16T09:55:37.713Z,42.00
2018-06-16T09:58:06.601Z,40.50
2018-06-16T10:00:40.538Z,41.40
2018-06-16T10:03:10.547Z,40.70
2018-06-16T10:05:39.369Z,41.00
2018-06-16T10:08:08.419Z,42.40
2018-06-16T10:10:37.389Z,41.80
2018-06-16T10:13:06.274Z,42.20
2018-06-16T10:15:35.141Z,41.70
2018-06-16T10:18:03.957Z,41.20
2018-06-16T10:20:32.762Z,38.80
2018-06-16T10:23:01.527Z,38.50
2018-06-16T10:25:38.052Z,38.00
2018-06-16T10:28:07.292Z,37.90
2018-06-16T10:30:36.511Z,37.60
2018-06-16T10:33:09.543Z,35.50
2018-06-16T10:35:38.411Z,35.60
2018-06-16T10:38:07.421Z,35.90
2018-06-16T10:40:37.320Z,34.50
2018-06-16T10:43:07.041Z,35.60
2018-06-16T10:45:35.981Z,36.90
2018-06-16T10:48:04.861Z,36.00
2018-06-16T10:50:33.662Z,35.00
2018-06-16T10:53:08.360Z,36.30
2018-06-16T10:58:31.750Z,33.20
2018-06-16T11:01:00.689Z,34.30
2018-06-16T11:03:29.659Z,34.30
2018-06-16T11:05:58.497Z,33.00
2018-06-16T11:08:27.199Z,34.80
2018-06-16T11:10:56.407Z,34.30
2018-06-16T11:13:25.441Z,35.50
2018-06-16T11:15:54.595Z,33.70
2018-06-16T11:18:23.616Z,35.20
2018-06-16T11:20:52.437Z,36.40
2018-06-16T11:23:37.229Z,34.70
2018-06-16T11:26:06.370Z,36.50
2018-06-16T11:28:35.393Z,38.50
2018-06-16T11:31:04.203Z,36.70
2018-06-16T11:33:33.159Z,36.80
2018-06-16T11:36:02.089Z,37.60
2018-06-16T11:38:30.963Z,36.50
2018-06-16T11:40:59.775Z,37.00
2018-06-16T11:43:28.603Z,36.80
2018-06-16T11:45:57.371Z,37.80
2018-06-16T11:48:26.161Z,36.60
2018-06-16T11:50:55.025Z,35.30
2018-06-16T11:53:38.056Z,37.70
2018-06-16T11:56:07.020Z,36.20
2018-06-16T11:58:36.275Z,35.60
2018-06-16T12:01:05.329Z,34.80
2018-06-16T12:03:44.425Z,34.20
2018-06-16T12:06:13.612Z,32.70
2018-06-16T12:08:42.511Z,31.30
2018-06-16T12:11:11.089Z,29.20
2018-06-16T12:13:39.529Z,27.60
2018-06-16T12:16:08.141Z,27.50
2018-06-16T12:18:36.819Z,26.20
2018-06-16T12:21:07.592Z,27.00
2018-06-16T12:23:38.397Z,24.50
2018-06-16T12:26:13.885Z,27.50
2018-06-16T12:31:13.323Z,25.40
2018-06-16T12:33:43.686Z,25.20
2018-06-16T12:36:13.437Z,25.40
2018-06-16T12:38:43.453Z,24.90
2018-06-16T12:53:54.989Z,28.20
2018-06-16T12:56:23.887Z,28.30
2018-06-16T13:10:00.374Z,24.90
2018-06-16T13:12:29.109Z,26.10
2018-06-16T13:14:57.663Z,25.70
2018-06-16T13:17:26.443Z,27.20
2018-06-16T13:22:23.559Z,25.90
2018-06-16T13:24:52.233Z,26.30
2018-06-16T13:27:20.982Z,27.00
2018-06-16T13:29:49.667Z,28.20
2018-06-16T13:32:18.424Z,28.10
2018-06-16T13:34:49.130Z,27.80
2018-06-16T13:37:17.819Z,28.10
2018-06-16T13:39:46.524Z,28.70
2018-06-16T13:42:15.253Z,28.60
2018-06-16T13:44:43.879Z,29.80
2018-06-16T13:47:12.729Z,30.30
2018-06-16T13:49:41.592Z,31.30
2018-06-16T13:52:10.646Z,32.10
2018-06-16T13:54:39.483Z,32.30
2018-06-16T13:57:08.305Z,32.30
2018-06-16T13:59:37.373Z,32.60
2018-06-16T14:02:06.193Z,32.70
2018-06-16T14:04:34.787Z,32.10
2018-06-16T14:07:03.527Z,32.60
2018-06-16T14:09:32.196Z,34.00
2018-06-16T14:12:00.914Z,35.30
2018-06-16T14:14:29.536Z,33.90
2018-06-16T14:16:58.239Z,34.90
2018-06-16T14:19:27.037Z,34.80
2018-06-16T14:21:55.674Z,33.60
2018-06-16T14:24:24.298Z,32.70
2018-06-16T14:26:53.139Z,31.60
2018-06-16T14:29:21.916Z,32.40
2018-06-16T14:31:50.646Z,32.00
2018-06-16T14:34:19.344Z,31.70
2018-06-16T14:36:48.023Z,31.30
2018-06-16T14:39:16.768Z,30.20
2018-06-16T14:41:57.183Z,29.90
2018-06-16T14:44:26.138Z,29.90
2018-06-16T14:46:54.910Z,30.20
2018-06-16T14:49:23.714Z,30.10
2018-06-16T14:51:52.331Z,31.30
2018-06-16T14:54:21.126Z,30.90
2018-06-16T14:56:49.763Z,29.40
2018-06-16T14:59:18.452Z,30.00
2018-06-16T15:01:47.180Z,31.20
2018-06-16T15:04:15.953Z,31.00
2018-06-16T15:06:44.620Z,32.30
2018-06-16T15:09:13.480Z,32.20
2018-06-16T15:11:42.270Z,33.70
2018-06-16T15:14:11.072Z,32.70
2018-06-16T15:16:39.911Z,34.40
2018-06-16T15:19:08.598Z,36.10
2018-06-16T15:21:37.253Z,35.40
2018-06-16T15:24:06.054Z,34.80
2018-06-16T15:26:34.776Z,37.10
2018-06-16T15:29:03.437Z,36.30
2018-06-16T15:31:32.120Z,35.30
2018-06-16T15:34:01.184Z,37.10
2018-06-16T15:36:29.988Z,37.80
2018-06-16T15:38:58.824Z,38.10
2018-06-16T15:41:27.576Z,38.10
2018-06-16T15:43:56.305Z,38.40
2018-06-16T15:46:25.094Z,38.40
2018-06-16T15:48:53.939Z,39.50
2018-06-16T15:51:22.720Z,38.60
2018-06-16T15:53:51.444Z,37.30
2018-06-16T15:56:20.176Z,37.20
2018-06-16T15:58:48.924Z,37.90
2018-06-16T16:01:17.686Z,36.90
2018-06-16T16:03:46.419Z,37.90
2018-06-16T16:06:15.120Z,38.90
2018-06-16T16:08:44.093Z,39.00
2018-06-16T16:11:12.838Z,38.70
2018-06-16T16:13:41.672Z,37.90
2018-06-16T16:16:10.596Z,39.70
2018-06-16T16:18:40.406Z,39.00
2018-06-16T16:21:09.166Z,38.30
2018-06-16T16:23:37.985Z,38.90
2018-06-16T16:26:06.716Z,40.30
2018-06-16T16:28:35.428Z,38.30
2018-06-16T16:31:04.182Z,40.30
2018-06-16T16:33:33.006Z,40.00
2018-06-16T16:36:01.627Z,40.20
2018-06-16T16:38:30.492Z,41.20
2018-06-16T16:40:59.190Z,40.80
2018-06-16T16:43:27.999Z,41.10
2018-06-16T16:45:56.696Z,41.60
2018-06-16T16:48:25.517Z,41.10
2018-06-16T16:50:54.656Z,40.30
2018-06-16T16:53:23.344Z,40.80
2018-06-16T16:55:52.022Z,40.70
2018-06-16T16:58:20.732Z,40.90
2018-06-16T17:00:51.264Z,41.00
2018-06-16T17:03:19.910Z,41.40
2018-06-16T17:05:48.572Z,40.40
2018-06-16T17:08:17.388Z,39.70
2018-06-16T17:10:46.148Z,39.50
2018-06-16T17:13:15.003Z,40.00
2018-06-16T17:15:43.756Z,41.20
2018-06-16T17:18:13.711Z,41.40
2018-06-16T17:20:42.578Z,41.30
2018-06-16T17:23:11.446Z,40.70
2018-06-16T17:25:40.305Z,41.70
2018-06-16T17:28:09.771Z,41.40
2018-06-16T17:30:38.578Z,42.00
2018-06-16T17:33:07.370Z,41.40
2018-06-16T17:35:35.983Z,43.00
2018-06-16T17:38:04.704Z,42.30
2018-06-16T17:40:33.612Z,42.00
2018-06-16T17:43:02.296Z,42.90
2018-06-16T17:45:34.052Z,43.50
2018-06-16T17:48:02.804Z,43.60
2018-06-16T17:50:31.504Z,43.60
2018-06-16T17:53:00.234Z,43.40
2018-06-16T17:55:29.131Z,44.30
2018-06-16T17:57:57.832Z,45.10
2018-06-16T18:00:26.543Z,45.30
2018-06-16T18:02:55.459Z,45.00
2018-06-16T18:05:24.214Z,45.10
2018-06-16T18:07:52.968Z,45.00
2018-06-16T18:10:21.690Z,45.70
2018-06-16T18:12:50.451Z,45.30
2018-06-16T18:15:19.074Z,45.80
2018-06-16T18:17:47.851Z,46.20
2018-06-16T18:20:16.679Z,46.50
2018-06-16T18:22:45.596Z,45.60
2018-06-16T18:25:14.636Z,46.00
2018-06-16T18:27:43.630Z,46.40
2018-06-16T18:30:12.538Z,46.90
2018-06-16T18:32:41.422Z,46.40
2018-06-16T18:35:10.268Z,46.60
2018-06-16T18:37:39.022Z,47.40
2018-06-16T18:40:07.845Z,47.10
2018-06-16T18:42:36.654Z,47.60
2018-06-16T18:45:05.430Z,47.80
2018-06-16T18:47:34.174Z,47.40
2018-06-16T18:50:02.913Z,48.00
2018-06-16T18:52:31.702Z,48.20
2018-06-16T18:55:00.384Z,48.00
2018-06-16T18:57:29.082Z,48.60
2018-06-16T19:02:26.066Z,49.10
2018-06-16T19:04:54.754Z,48.40
2018-06-16T19:07:23.450Z,48.50
2018-06-16T19:09:52.244Z,48.50
2018-06-16T19:12:21.032Z,49.00
2018-06-16T19:14:49.900Z,49.90
2018-06-16T19:17:18.651Z,50.20
2018-06-16T19:19:47.495Z,49.90
2018-06-16T19:22:16.311Z,50.40
2018-06-16T19:27:13.647Z,50.30
2018-06-16T19:29:42.571Z,50.30
2018-06-16T19:32:11.355Z,51.00
2018-06-16T19:34:40.249Z,50.60
2018-06-16T19:37:09.099Z,51.50
2018-06-16T19:39:37.878Z,51.20
2018-06-16T19:42:06.551Z,51.60
2018-06-16T19:44:35.274Z,51.80
2018-06-16T19:47:04.052Z,51.80
2018-06-16T19:49:32.793Z,51.70
2018-06-16T19:52:01.473Z,51.80
2018-06-16T19:54:30.289Z,52.00
2018-06-16T19:56:59.059Z,52.00
2018-06-16T19:59:28.041Z,52.20
2018-06-16T20:01:56.692Z,52.20
2018-06-16T20:04:25.435Z,52.30
2018-06-16T20:06:54.227Z,53.40
2018-06-16T20:09:22.975Z,54.50
2018-06-16T20:11:51.774Z,53.70
2018-06-16T20:14:20.505Z,54.70
2018-06-16T20:16:49.601Z,54.70
2018-06-16T20:19:18.296Z,54.50
2018-06-16T20:21:47.185Z,54.20
2018-06-16T20:24:16.056Z,54.30
2018-06-16T20:26:45.051Z,54.00
2018-06-16T20:29:13.982Z,54.20
2018-06-16T20:31:42.844Z,54.80
2018-06-16T20:36:41.209Z,55.80
2018-06-16T20:39:09.875Z,56.00
2018-06-16T20:41:38.898Z,57.90
2018-06-16T20:44:07.874Z,58.90
2018-06-16T20:46:36.585Z,57.20
2018-06-16T20:49:05.405Z,57.00
2018-06-16T20:51:34.124Z,56.90
2018-06-16T20:54:02.815Z,56.60
2018-06-16T20:56:31.566Z,56.30
2018-06-16T20:59:00.275Z,57.50
2018-06-16T21:01:29.027Z,57.70
2018-06-16T21:03:58.368Z,58.20
2018-06-16T21:06:27.167Z,58.40
2018-06-16T21:08:55.899Z,60.20
2018-06-16T21:11:24.571Z,60.00
2018-06-16T21:13:53.343Z,59.80
2018-06-16T21:16:22.220Z,60.30
2018-06-16T21:18:50.967Z,59.50
2018-06-16T21:21:19.629Z,60.20
2018-06-16T21:23:49.073Z,60.60
2018-06-16T21:26:17.894Z,60.30
2018-06-16T21:28:46.963Z,62.50
2018-06-16T21:31:15.943Z,61.40
2018-06-16T21:33:44.704Z,60.70
2018-06-16T21:36:13.575Z,61.00
2018-06-16T21:38:42.594Z,61.80
2018-06-16T21:41:11.649Z,62.30
2018-06-16T21:43:40.584Z,62.60
2018-06-16T21:46:09.385Z,62.10
2018-06-16T21:48:38.143Z,62.10
2018-06-16T21:51:06.926Z,63.50
2018-06-16T21:53:35.633Z,63.50
2018-06-16T21:56:04.397Z,63.90
2018-06-16T21:58:33.120Z,65.00
2018-06-16T22:01:01.785Z,65.20
2018-06-16T22:03:30.508Z,65.50
2018-06-16T22:08:31.314Z,67.30
2018-06-16T22:11:00.793Z,67.80
2018-06-16T22:13:30.047Z,68.20
2018-06-16T22:15:58.743Z,68.80
2018-06-16T22:18:27.973Z,69.30
2018-06-16T22:20:57.215Z,70.50
2018-06-16T22:23:25.945Z,71.00
2018-06-16T22:25:54.637Z,71.80
2018-06-16T22:28:23.286Z,71.70
2018-06-16T22:30:52.086Z,72.10
2018-06-16T22:33:20.889Z,72.40
2018-06-16T22:35:49.778Z,72.80
2018-06-16T22:38:18.417Z,73.20
2018-06-16T22:40:47.129Z,73.70
2018-06-16T22:43:15.915Z,74.00
2018-06-16T22:45:44.667Z,75.10
2018-06-16T22:48:13.452Z,75.30
2018-06-16T22:50:42.529Z,76.30
2018-06-16T22:53:11.561Z,76.70
2018-06-16T22:55:40.580Z,77.60
2018-06-16T22:58:09.381Z,78.70
2018-06-16T23:00:38.177Z,78.60
2018-06-16T23:03:06.936Z,78.20
2018-06-16T23:05:35.639Z,77.70
2018-06-16T23:08:04.447Z,78.60
2018-06-16T23:10:33.350Z,78.60
2018-06-16T23:13:02.083Z,78.20
2018-06-16T23:15:30.973Z,78.40
2018-06-16T23:17:59.873Z,78.40
2018-06-16T23:20:28.626Z,79.40
2018-06-16T23:22:57.337Z,79.30
2018-06-16T23:25:26.292Z,79.60
2018-06-16T23:27:55.103Z,79.80
2018-06-16T23:30:23.750Z,79.80
2018-06-16T23:32:52.471Z,79.30
2018-06-16T23:35:21.111Z,79.10
2018-06-16T23:37:49.811Z,79.60
2018-06-16T23:40:18.511Z,79.60
2018-06-16T23:42:47.430Z,79.10
2018-06-16T23:45:16.245Z,78.50
2018-06-16T23:47:44.853Z,78.60
2018-06-16T23:50:13.676Z,78.60
2018-06-16T23:52:42.202Z,78.50
2018-06-16T23:55:10.893Z,79.50
2018-06-16T23:57:39.635Z,80.90
